Time;durP1;ratioP1;P1;durP2;ratioP2;P2;SDS_P1;SDS_P2;PMS_P1;PMS_P2;Temp;Humidity;BMP_temperature;BMP_pressure;BME280_temperature;BME280_humidity;BME280_pressure;Samples;Min_cycle;Max_cycle;Signal;HPM_P1;HPM_P2
2022/09/03 00:00:34;;;;;;;19.63;18.30;;;14.00;99.90;;;;;;5022047;28;20541;-80
2022/09/03 00:03:26;;;;;;;19.88;18.88;;;13.90;99.90;;;;;;5038960;28;20080;-80
2022/09/03 00:06:08;;;;;;;20.27;18.40;;;13.80;99.90;;;;;;5022791;28;20026;-80
2022/09/03 00:09:10;;;;;;;18.67;17.80;;;13.80;99.90;;;;;;5021864;28;20109;-80
2022/09/03 00:12:01;;;;;;;18.50;17.33;;;13.70;99.90;;;;;;5013936;28;20044;-81
2022/09/03 00:14:54;;;;;;;22.38;20.80;;;13.60;99.90;;;;;;5024096;28;20033;-81
2022/09/03 00:17:34;;;;;;;21.90;20.73;;;13.50;99.90;;;;;;5026425;28;20031;-80
2022/09/03 00:20:06;;;;;;;20.33;19.25;;;13.40;99.90;;;;;;5026019;28;20026;-81
2022/09/03 00:22:53;;;;;;;20.23;19.25;;;13.50;99.90;;;;;;5028483;28;20409;-80
2022/09/03 00:25:25;;;;;;;22.25;21.15;;;13.50;99.90;;;;;;5029194;28;20071;-81
2022/09/03 00:27:54;;;;;;;22.98;21.88;;;13.50;99.90;;;;;;5030777;28;20029;-80
2022/09/03 00:30:22;;;;;;;21.08;19.95;;;13.40;99.90;;;;;;5031958;28;20095;-81
2022/09/03 00:32:53;;;;;;;21.67;20.63;;;13.50;99.90;;;;;;5031635;28;20171;-80
2022/09/03 00:35:30;;;;;;;21.52;20.30;;;13.40;99.90;;;;;;5028655;28;20060;-80
2022/09/03 00:37:57;;;;;;;24.33;23.13;;;13.50;99.90;;;;;;5025658;28;20037;-80
2022/09/03 00:40:46;;;;;;;23.30;22.15;;;13.50;99.90;;;;;;5029502;28;20521;-80
2022/09/03 00:43:31;;;;;;;25.63;24.20;;;13.50;99.90;;;;;;5027534;28;20040;-81
2022/09/03 00:46:31;;;;;;;27.45;26.02;;;13.50;99.90;;;;;;5029224;28;20029;-80
2022/09/03 00:49:25;;;;;;;25.20;24.05;;;13.50;99.90;;;;;;5026305;28;20018;-80
2022/09/03 00:52:18;;;;;;;21.35;20.23;;;13.50;99.90;;;;;;5023677;28;20022;-80
2022/09/03 00:55:18;;;;;;;24.35;23.17;;;13.60;99.90;;;;;;5027254;28;20029;-80
2022/09/03 00:58:11;;;;;;;26.35;24.38;;;13.50;99.90;;;;;;5027274;28;20052;-80
2022/09/03 01:00:42;;;;;;;26.38;25.17;;;13.40;99.90;;;;;;5015291;28;20767;-80
2022/09/03 01:03:10;;;;;;;38.72;37.08;;;13.40;99.90;;;;;;5020521;28;20033;-80
2022/09/03 01:05:51;;;;;;;26.52;25.33;;;13.50;99.90;;;;;;5030358;28;20071;-80
2022/09/03 01:08:30;;;;;;;42.20;40.45;;;13.60;99.90;;;;;;5025772;28;20036;-80
2022/09/03 01:11:17;;;;;;;42.70;40.87;;;13.50;99.90;;;;;;5041116;28;20095;-80
2022/09/03 01:13:53;;;;;;;27.30;26.17;;;13.40;99.90;;;;;;5029116;28;20323;-80
2022/09/03 01:16:50;;;;;;;34.78;33.35;;;13.30;99.90;;;;;;5011856;28;20064;-80
2022/09/03 01:19:58;;;;;;;25.30;24.08;;;13.20;99.90;;;;;;5029071;28;20028;-80
2022/09/03 01:22:59;;;;;;;24.30;22.88;;;13.20;99.90;;;;;;5016036;28;20120;-80
2022/09/03 01:25:37;;;;;;;24.38;23.27;;;13.10;99.90;;;;;;4982050;28;20132;-80
2022/09/03 01:28:16;;;;;;;33.70;32.13;;;13.10;99.90;;;;;;5030023;28;20071;-81
2022/09/03 01:30:48;;;;;;;34.03;32.45;;;13.00;99.90;;;;;;5021384;28;20029;-80
2022/09/03 01:33:25;;;;;;;36.70;34.70;;;13.00;99.90;;;;;;5021602;28;20029;-80
2022/09/03 01:36:02;;;;;;;49.40;47.28;;;12.90;99.90;;;;;;5027884;28;20029;-81
2022/09/03 01:38:39;;;;;;;41.60;39.80;;;12.80;99.90;;;;;;5016269;28;20158;-81
2022/09/03 01:44:47;;;;;;;25.08;23.65;;;12.60;99.90;;;;;;5029221;28;20103;-79
2022/09/03 01:47:21;;;;;;;23.88;22.35;;;12.60;99.90;;;;;;5028835;28;20026;-80
2022/09/03 01:49:49;;;;;;;31.20;29.75;;;12.50;99.90;;;;;;5027664;28;20560;-79
2022/09/03 01:52:50;;;;;;;56.22;53.15;;;12.50;99.90;;;;;;5027244;28;20064;-80
2022/09/03 01:55:32;;;;;;;29.75;28.42;;;12.20;99.90;;;;;;5006413;28;20076;-80
2022/09/03 01:58:13;;;;;;;29.65;28.27;;;12.20;99.90;;;;;;5035597;28;20079;-80
2022/09/03 02:00:40;;;;;;;;;;;12.20;99.90;;;;;;5023350;28;20029;-80
2022/09/03 02:03:07;;;;;;;18.75;17.65;;;12.20;99.90;;;;;;5046414;28;19916;-78
2022/09/03 02:05:34;;;;;;;25.80;24.42;;;12.20;99.90;;;;;;5028288;28;20415;-80
2022/09/03 02:08:08;;;;;;;39.65;37.90;;;12.20;99.90;;;;;;5031334;28;20025;-80
2022/09/03 02:10:42;;;;;;;29.80;28.42;;;12.20;99.90;;;;;;5022719;28;20505;-80
2022/09/03 02:13:22;;;;;;;27.80;25.63;;;12.10;99.90;;;;;;5026034;28;20083;-80
2022/09/03 02:15:51;;;;;;;27.70;26.45;;;12.20;99.90;;;;;;5030736;28;20086;-80
2022/09/03 02:18:21;;;;;;;30.15;28.73;;;12.20;99.90;;;;;;5030872;28;20033;-80
2022/09/03 02:20:48;;;;;;;40.17;38.28;;;12.40;99.90;;;;;;5027737;28;20037;-80
2022/09/03 02:23:15;;;;;;;49.58;47.53;;;12.40;99.90;;;;;;5009481;28;20060;-80
2022/09/03 02:25:46;;;;;;;44.20;42.15;;;12.40;99.90;;;;;;5030865;28;20033;-80
2022/09/03 02:28:13;;;;;;;35.70;33.85;;;12.40;99.90;;;;;;5025572;28;20044;-80
2022/09/03 02:30:40;;;;;;;36.78;35.17;;;12.50;99.90;;;;;;5024463;28;20108;-81
2022/09/03 02:33:05;;;;;;;38.55;36.42;;;12.60;99.90;;;;;;5029560;28;20038;-80
2022/09/03 02:35:31;;;;;;;32.50;31.05;;;12.60;99.90;;;;;;5029554;28;20068;-80
2022/09/03 02:38:07;;;;;;;26.50;25.13;;;12.60;99.90;;;;;;5030755;28;20030;-80
2022/09/03 02:40:34;;;;;;;28.20;26.83;;;12.50;99.90;;;;;;5021713;28;20053;-80
2022/09/03 02:43:01;;;;;;;30.48;29.15;;;12.50;99.90;;;;;;5016094;28;20716;-80
2022/09/03 02:45:28;;;;;;;53.03;50.90;;;12.50;99.90;;;;;;5026180;28;20042;-81
2022/09/03 02:47:56;;;;;;;46.53;44.58;;;12.50;99.90;;;;;;5028431;28;20048;-80
2022/09/03 02:50:23;;;;;;;49.45;47.42;;;12.60;99.90;;;;;;5027401;28;20025;-80
2022/09/03 02:52:50;;;;;;;78.13;75.05;;;12.70;99.90;;;;;;5024937;28;20405;-80
2022/09/03 02:55:16;;;;;;;77.05;73.97;;;12.80;99.90;;;;;;5028416;28;20493;-80
2022/09/03 02:57:42;;;;;;;56.58;54.13;;;12.80;99.90;;;;;;5029998;28;20038;-80
2022/09/03 03:00:08;;;;;;;56.45;54.08;;;12.80;99.90;;;;;;5026784;28;20100;-80
2022/09/03 03:02:34;;;;;;;30.67;29.25;;;13.00;99.90;;;;;;5028283;28;20083;-80
2022/09/03 03:05:00;;;;;;;40.58;38.80;;;13.00;99.90;;;;;;5027864;28;20029;-80
2022/09/03 03:07:30;;;;;;;75.03;71.97;;;13.00;99.90;;;;;;5026188;28;20030;-80
2022/09/03 03:09:56;;;;;;;48.65;46.28;;;12.90;99.90;;;;;;5027534;28;20476;-80
2022/09/03 03:12:22;;;;;;;46.10;43.90;;;12.80;99.90;;;;;;5027429;28;20072;-80
2022/09/03 03:14:47;;;;;;;51.92;49.72;;;12.90;99.90;;;;;;5029459;28;20041;-80
2022/09/03 03:17:13;;;;;;;47.65;45.60;;;12.80;99.90;;;;;;5027406;28;20132;-80
2022/09/03 03:19:38;;;;;;;45.22;43.25;;;12.90;99.90;;;;;;5025483;28;20041;-80
2022/09/03 03:22:04;;;;;;;53.13;50.90;;;12.90;99.90;;;;;;5027444;28;20731;-80
2022/09/03 03:24:30;;;;;;;46.75;44.60;;;12.90;99.90;;;;;;5024844;28;20505;-80
2022/09/03 03:26:59;;;;;;;59.03;56.25;;;13.00;99.90;;;;;;5029198;28;20033;-80
2022/09/03 03:29:25;;;;;;;55.58;53.20;;;12.90;99.90;;;;;;5028220;28;20037;-80
2022/09/03 03:31:51;;;;;;;65.65;62.85;;;13.00;99.90;;;;;;5024054;28;20049;-80
2022/09/03 03:34:17;;;;;;;56.95;54.65;;;13.00;99.90;;;;;;5005860;28;20666;-80
2022/09/03 03:36:44;;;;;;;53.65;50.97;;;13.00;99.90;;;;;;5026999;28;20022;-80
2022/09/03 03:39:10;;;;;;;53.97;51.80;;;13.00;99.90;;;;;;5029400;28;20045;-81
2022/09/03 03:41:36;;;;;;;58.78;55.80;;;13.00;99.90;;;;;;5003894;28;20048;-80
2022/09/03 03:44:04;;;;;;;69.05;66.28;;;12.90;99.90;;;;;;5029657;28;20080;-80
2022/09/03 03:46:36;;;;;;;47.05;45.03;;;12.90;99.90;;;;;;5022427;28;20029;-80
2022/09/03 03:49:03;;;;;;;72.88;69.82;;;12.90;99.90;;;;;;5024106;28;20515;-80
2022/09/03 03:51:29;;;;;;;54.00;51.60;;;12.90;99.90;;;;;;5021624;28;20029;-80
2022/09/03 03:53:56;;;;;;;63.97;61.50;;;13.00;99.90;;;;;;5023565;28;20044;-80
2022/09/03 03:56:23;;;;;;;57.85;55.58;;;13.00;99.90;;;;;;5026051;28;20120;-80
2022/09/03 03:58:49;;;;;;;74.30;71.00;;;13.10;99.90;;;;;;5029016;28;20335;-80
2022/09/03 04:01:17;;;;;;;120.40;115.60;;;12.90;99.90;;;;;;5022789;28;20781;-80
2022/09/03 04:03:43;;;;;;;64.20;61.67;;;12.90;99.90;;;;;;5024810;28;20041;-80
2022/09/03 04:06:11;;;;;;;114.07;109.65;;;13.00;99.90;;;;;;5024659;28;20516;-80
2022/09/03 04:08:40;;;;;;;121.82;116.85;;;13.10;99.90;;;;;;5026176;28;20527;-80
2022/09/03 04:11:08;;;;;;;72.88;70.05;;;13.00;99.90;;;;;;5025972;28;20059;-80
2022/09/03 04:13:40;;;;;;;111.03;106.82;;;13.10;99.90;;;;;;5022646;28;20043;-80
2022/09/03 04:16:14;;;;;;;154.95;148.77;;;13.20;99.90;;;;;;5021726;28;20037;-81
2022/09/03 04:18:41;;;;;;;197.35;189.40;;;13.20;99.90;;;;;;5026438;28;20033;-80
2022/09/03 04:21:09;;;;;;;280.08;268.08;;;13.20;99.90;;;;;;5025454;28;20128;-80
2022/09/03 04:23:40;;;;;;;246.27;236.00;;;13.00;99.90;;;;;;5024990;28;20147;-80
2022/09/03 04:26:06;;;;;;;;;;;12.80;99.90;;;;;;5023672;28;20153;-81
2022/09/03 04:28:33;;;;;;;129.10;123.90;;;12.60;99.90;;;;;;5025479;28;19909;-80
2022/09/03 04:31:03;;;;;;;273.30;261.27;;;12.80;99.90;;;;;;5009467;28;20033;-80
2022/09/03 04:33:30;;;;;;;285.52;273.13;;;12.60;99.90;;;;;;5026572;28;20091;-81
2022/09/03 04:36:15;;;;;;;377.85;359.90;;;12.70;99.90;;;;;;5025415;28;20029;-81
2022/09/03 04:38:43;;;;;;;343.88;328.08;;;12.60;99.90;;;;;;5028089;28;20497;-80
2022/09/03 04:41:11;;;;;;;358.17;341.15;;;12.70;99.90;;;;;;5028417;28;20041;-80
2022/09/03 04:43:37;;;;;;;378.77;361.05;;;12.80;99.90;;;;;;5024759;28;20029;-81
2022/09/03 04:46:05;;;;;;;395.70;375.10;;;12.70;99.90;;;;;;5028435;28;20033;-81
2022/09/03 04:48:32;;;;;;;354.00;338.02;;;12.80;99.90;;;;;;5028663;28;20087;-81
2022/09/03 04:51:12;;;;;;;379.83;362.48;;;12.80;99.90;;;;;;5010532;28;20036;-81
2022/09/03 04:53:44;;;;;;;339.50;323.55;;;12.80;99.90;;;;;;5023864;28;20037;-80
2022/09/03 04:56:14;;;;;;;370.67;353.13;;;12.90;99.90;;;;;;5025862;28;20565;-81
2022/09/03 04:58:43;;;;;;;350.27;333.83;;;12.90;99.90;;;;;;5022621;28;20382;-81
2022/09/03 05:01:10;;;;;;;390.70;371.45;;;12.90;99.90;;;;;;5023349;28;20034;-81
2022/09/03 05:03:36;;;;;;;357.48;340.00;;;12.90;99.90;;;;;;5023300;28;20041;-80
2022/09/03 05:06:05;;;;;;;348.33;332.45;;;13.00;99.90;;;;;;5017996;28;20043;-81
2022/09/03 05:08:31;;;;;;;373.25;355.80;;;12.90;99.90;;;;;;5030363;28;20025;-80
2022/09/03 05:11:00;;;;;;;323.50;309.00;;;13.00;99.90;;;;;;5028896;28;20044;-80
2022/09/03 05:13:27;;;;;;;396.38;376.35;;;12.90;99.90;;;;;;5026344;28;20036;-80
2022/09/03 05:16:00;;;;;;;450.45;427.77;;;13.00;99.90;;;;;;5024480;28;20033;-81
2022/09/03 05:18:25;;;;;;;341.20;325.10;;;13.00;99.90;;;;;;5039770;28;20044;-81
2022/09/03 05:21:17;;;;;;;451.55;428.55;;;13.00;99.90;;;;;;5026842;28;20060;-80
2022/09/03 05:23:45;;;;;;;313.23;298.67;;;13.00;99.90;;;;;;5024599;28;20578;-80
2022/09/03 05:26:17;;;;;;;354.33;337.40;;;13.00;99.90;;;;;;5030170;28;20049;-80
2022/09/03 05:28:43;;;;;;;374.77;356.67;;;12.90;99.90;;;;;;5019902;28;20033;-80
2022/09/03 05:31:11;;;;;;;417.30;396.90;;;13.00;99.90;;;;;;5030061;28;20053;-81
2022/09/03 05:33:48;;;;;;;392.40;373.58;;;13.10;99.90;;;;;;5023428;28;20726;-80
2022/09/03 05:36:16;;;;;;;415.25;393.85;;;13.10;99.90;;;;;;5024106;28;20086;-81
2022/09/03 05:38:43;;;;;;;456.15;432.48;;;13.10;99.90;;;;;;5027601;28;20084;-80
2022/09/03 05:41:11;;;;;;;544.70;512.45;;;13.10;99.90;;;;;;5023296;28;20042;-81
2022/09/03 05:43:37;;;;;;;583.45;543.13;;;13.20;99.90;;;;;;5023209;28;20045;-81
2022/09/03 05:46:07;;;;;;;434.10;413.20;;;13.20;99.90;;;;;;5026570;28;20029;-81
2022/09/03 05:48:34;;;;;;;503.08;475.55;;;13.30;99.90;;;;;;5022453;28;20484;-81
2022/09/03 05:51:04;;;;;;;419.17;398.17;;;13.30;99.90;;;;;;5031738;28;20038;-81
2022/09/03 05:53:33;;;;;;;328.30;310.95;;;13.30;99.90;;;;;;5024958;28;21643;-81
2022/09/03 05:56:11;;;;;;;392.92;372.65;;;13.40;99.90;;;;;;5053804;28;20100;-81
2022/09/03 05:58:43;;;;;;;488.35;461.35;;;13.50;99.90;;;;;;5025650;28;20117;-80
2022/09/03 06:01:18;;;;;;;460.92;435.60;;;13.50;99.90;;;;;;5017576;28;20034;-80
2022/09/03 06:03:44;;;;;;;407.25;384.38;;;13.50;99.90;;;;;;5027414;28;20029;-81
2022/09/03 06:06:12;;;;;;;565.00;533.25;;;13.60;99.90;;;;;;5017249;28;20029;-81
2022/09/03 06:08:39;;;;;;;546.38;507.88;;;13.70;99.90;;;;;;5029396;28;20040;-81
2022/09/03 06:11:06;;;;;;;702.25;639.60;;;13.70;99.90;;;;;;5025586;28;20026;-81
2022/09/03 06:13:32;;;;;;;737.33;680.72;;;13.70;99.90;;;;;;5020399;28;20038;-81
2022/09/03 06:16:04;;;;;;;885.88;806.45;;;13.80;99.90;;;;;;5030649;28;20108;-81
2022/09/03 06:18:30;;;;;;;920.42;839.20;;;13.80;99.90;;;;;;5026968;28;20518;-81
2022/09/03 06:20:58;;;;;;;983.03;842.35;;;13.90;99.90;;;;;;5027446;28;20115;-81
2022/09/03 06:23:25;;;;;;;803.97;726.55;;;14.00;99.90;;;;;;5023575;28;20141;-81
2022/09/03 06:26:04;;;;;;;960.88;841.92;;;14.00;99.90;;;;;;5020143;28;20030;-81
2022/09/03 06:28:35;;;;;;;981.95;855.08;;;14.20;99.90;;;;;;5018720;28;20108;-81
2022/09/03 06:31:03;;;;;;;1038.03;921.85;;;14.30;99.90;;;;;;5020133;28;20552;-81
2022/09/03 06:33:30;;;;;;;1279.97;926.63;;;14.50;99.90;;;;;;5014554;28;20222;-82
2022/09/03 06:35:58;;;;;;;1208.38;848.88;;;14.60;99.90;;;;;;5017187;28;20109;-81
2022/09/03 06:38:30;;;;;;;1246.95;918.00;;;14.80;99.90;;;;;;5022329;28;20029;-80
2022/09/03 06:41:03;;;;;;;732.92;675.85;;;14.80;99.90;;;;;;5019897;28;20100;-80
2022/09/03 06:43:31;;;;;;;1786.38;999.90;;;15.10;99.90;;;;;;5020380;28;20033;-80
2022/09/03 06:46:13;;;;;;;1124.00;910.83;;;15.10;99.90;;;;;;5016755;28;20116;-81
2022/09/03 06:48:39;;;;;;;792.03;713.15;;;15.20;99.90;;;;;;5015369;28;20037;-81
2022/09/03 06:51:08;;;;;;;880.58;794.83;;;15.30;99.90;;;;;;5020970;28;20274;-80
2022/09/03 06:53:36;;;;;;;857.80;771.65;;;15.30;99.90;;;;;;5017962;28;20484;-80
2022/09/03 06:56:05;;;;;;;840.35;748.47;;;15.40;99.90;;;;;;5024439;28;20037;-82
2022/09/03 06:58:36;;;;;;;951.08;849.42;;;15.40;99.90;;;;;;5026314;28;20583;-81
2022/09/03 07:01:17;;;;;;;1106.65;916.58;;;15.40;99.90;;;;;;5022626;28;20033;-81
2022/09/03 07:03:45;;;;;;;836.30;755.85;;;15.60;99.90;;;;;;5026641;28;20443;-80
2022/09/03 07:06:15;;;;;;;1285.07;916.90;;;15.50;99.90;;;;;;5012347;28;20026;-81
2022/09/03 07:08:41;;;;;;;953.63;850.65;;;15.60;99.90;;;;;;5028154;28;20122;-80
2022/09/03 07:11:10;;;;;;;892.53;809.28;;;15.70;99.90;;;;;;5027549;28;20132;-81
2022/09/03 07:13:42;;;;;;;932.03;847.60;;;15.80;99.90;;;;;;5020997;28;20034;-80
2022/09/03 07:16:24;;;;;;;818.05;753.10;;;15.80;99.90;;;;;;5018853;28;20066;-80
2022/09/03 07:18:51;;;;;;;584.22;546.80;;;16.00;99.90;;;;;;5015513;28;20033;-80
2022/09/03 07:21:22;;;;;;;988.60;895.90;;;16.20;99.90;;;;;;5023949;28;20504;-80
2022/09/03 07:23:50;;;;;;;719.55;661.95;;;16.30;99.90;;;;;;5025166;28;20123;-81
2022/09/03 07:26:22;;;;;;;710.33;662.70;;;16.20;99.90;;;;;;5022187;28;20041;-81
2022/09/03 07:28:48;;;;;;;634.00;590.50;;;16.40;99.90;;;;;;5027756;28;20049;-81
2022/09/03 07:31:21;;;;;;;799.25;724.60;;;16.40;99.90;;;;;;5038832;28;20038;-82
2022/09/03 07:33:47;;;;;;;842.72;772.75;;;16.50;99.90;;;;;;5024272;28;20033;-81
2022/09/03 07:36:16;;;;;;;621.63;577.55;;;16.70;99.90;;;;;;5009307;28;20038;-82
2022/09/03 07:38:43;;;;;;;613.85;574.30;;;16.90;99.90;;;;;;5017342;28;20560;-82
2022/09/03 07:41:10;;;;;;;250.52;239.90;;;17.00;99.90;;;;;;5017723;28;20520;-81
2022/09/03 07:43:39;;;;;;;454.98;431.80;;;16.70;99.90;;;;;;5020919;28;20098;-81
2022/09/03 07:46:05;;;;;;;148.75;142.07;;;16.60;99.90;;;;;;5006141;28;20022;-81
2022/09/03 07:48:31;;;;;;;210.35;201.98;;;16.30;99.90;;;;;;5011096;28;20501;-82
2022/09/03 07:51:00;;;;;;;80.75;77.45;;;16.20;99.90;;;;;;5021672;28;20104;-81
2022/09/03 07:53:27;;;;;;;249.55;239.00;;;16.10;99.90;;;;;;5009867;28;20135;-83
2022/09/03 07:55:55;;;;;;;275.98;261.25;;;16.10;99.90;;;;;;5016315;28;20029;-84
2022/09/03 07:58:22;;;;;;;294.65;280.83;;;16.10;99.90;;;;;;5015477;28;20105;-80
2022/09/03 08:00:48;;;;;;;424.65;402.58;;;16.00;99.90;;;;;;5029182;28;20044;-79
2022/09/03 08:03:14;;;;;;;268.42;239.23;;;16.10;99.90;;;;;;5031822;28;20045;-80
2022/09/03 08:05:39;;;;;;;192.55;185.20;;;16.10;99.90;;;;;;4985118;28;20032;-80
2022/09/03 08:08:07;;;;;;;231.85;222.15;;;16.20;99.90;;;;;;5023318;28;20383;-81
2022/09/03 08:10:37;;;;;;;349.30;333.02;;;16.30;99.90;;;;;;5023694;28;20037;-82
2022/09/03 08:13:06;;;;;;;341.30;325.58;;;16.40;99.90;;;;;;5019078;28;20049;-81
2022/09/03 08:15:33;;;;;;;426.90;404.58;;;16.60;99.90;;;;;;5027136;28;20079;-78
2022/09/03 08:18:01;;;;;;;408.05;389.00;;;16.60;99.90;;;;;;5013693;28;20014;-80
2022/09/03 08:20:27;;;;;;;602.72;567.00;;;16.50;99.90;;;;;;5016726;28;20038;-78
2022/09/03 08:23:00;;;;;;;566.20;525.67;;;16.60;99.90;;;;;;5022543;28;20448;-78
2022/09/03 08:25:26;;;;;;;822.30;762.65;;;16.30;99.90;;;;;;5022922;28;20030;-77
2022/09/03 08:27:51;;;;;;;700.05;652.90;;;16.40;99.90;;;;;;5015724;28;20103;-77
2022/09/03 08:30:17;;;;;;;595.83;556.13;;;16.30;99.90;;;;;;5011554;28;20038;-77
2022/09/03 08:32:43;;;;;;;670.88;615.40;;;16.40;99.90;;;;;;5016643;28;20030;-77
2022/09/03 08:35:08;;;;;;;740.38;681.33;;;16.70;99.90;;;;;;5014949;28;20128;-77
2022/09/03 08:37:34;;;;;;;689.13;641.40;;;17.00;99.90;;;;;;5007158;28;20544;-81
2022/09/03 08:40:02;;;;;;;440.95;418.42;;;17.70;99.90;;;;;;4995949;28;20045;-77
2022/09/03 08:42:54;;;;;;;987.63;887.08;;;17.80;99.90;;;;;;5010295;28;20046;-76
2022/09/03 08:45:20;;;;;;;220.90;211.07;;;18.10;99.90;;;;;;5016374;28;20049;-77
2022/09/03 08:48:14;;;;;;;180.65;170.27;;;18.10;99.90;;;;;;5024767;28;20030;-76
2022/09/03 08:50:44;;;;;;;133.95;129.00;;;18.20;99.90;;;;;;5027865;28;20056;-77
2022/09/03 08:53:21;;;;;;;98.40;94.33;;;18.30;99.90;;;;;;5030665;28;20037;-77
2022/09/03 08:56:00;;;;;;;238.77;228.35;;;18.80;99.90;;;;;;5012933;28;20283;-77
2022/09/03 08:58:27;;;;;;;230.70;221.45;;;19.40;99.90;;;;;;5015983;28;20034;-77
2022/09/03 09:01:23;;;;;;;48.35;45.80;;;19.70;99.90;;;;;;5021409;28;20040;-77
2022/09/03 09:03:51;;;;;;;56.60;54.30;;;19.40;99.90;;;;;;5021561;28;20033;-76
2022/09/03 09:06:51;;;;;;;141.13;135.43;;;19.10;99.90;;;;;;5019365;28;20033;-75
2022/09/03 09:09:57;;;;;;;44.17;42.42;;;19.20;99.90;;;;;;5024728;28;20079;-76
2022/09/03 09:12:44;;;;;;;48.15;46.20;;;19.30;99.90;;;;;;5024255;28;20042;-78
2022/09/03 09:15:21;;;;;;;76.60;73.78;;;19.60;99.90;;;;;;5024244;28;20036;-78
2022/09/03 09:18:02;;;;;;;32.17;30.83;;;20.30;99.90;;;;;;5025483;28;20021;-78
2022/09/03 09:20:51;;;;;;;59.47;57.22;;;20.40;99.90;;;;;;5022248;28;20107;-77
2022/09/03 09:23:29;;;;;;;40.53;38.85;;;20.20;99.90;;;;;;5029360;28;20021;-76
2022/09/03 09:25:56;;;;;;;21.98;21.02;;;20.10;99.90;;;;;;5019610;28;20052;-76
2022/09/03 09:28:28;;;;;;;42.50;40.85;;;20.30;99.90;;;;;;5018654;28;20084;-77
2022/09/03 09:30:56;;;;;;;49.38;47.53;;;20.60;99.90;;;;;;5025124;28;20030;-76
2022/09/03 09:33:23;;;;;;;39.00;37.45;;;20.60;99.90;;;;;;5027375;28;20099;-77
2022/09/03 09:35:48;;;;;;;19.75;18.85;;;20.70;99.90;;;;;;5025231;28;20037;-77
2022/09/03 09:38:25;;;;;;;17.13;16.23;;;20.50;97.70;;;;;;5026104;28;20041;-76
2022/09/03 09:40:51;;;;;;;18.40;17.55;;;20.40;97.30;;;;;;5023956;28;20060;-76
2022/09/03 09:43:20;;;;;;;19.50;18.63;;;20.90;97.00;;;;;;5023844;28;20489;-77
2022/09/03 09:45:51;;;;;;;26.17;25.02;;;21.40;98.20;;;;;;5022354;28;20679;-76
2022/09/03 09:48:33;;;;;;;21.25;20.35;;;21.80;98.90;;;;;;5027827;28;20454;-77
2022/09/03 09:51:10;;;;;;;18.60;17.65;;;21.80;91.50;;;;;;5028659;28;20029;-77
2022/09/03 09:53:36;;;;;;;26.70;25.50;;;22.00;96.20;;;;;;5026754;28;20101;-77
2022/09/03 09:56:02;;;;;;;23.08;21.98;;;21.70;94.80;;;;;;5025588;28;20152;-77
2022/09/03 09:58:31;;;;;;;45.78;43.75;;;21.60;92.50;;;;;;5026967;28;20030;-77
2022/09/03 10:01:01;;;;;;;22.30;21.17;;;21.30;93.80;;;;;;5020019;28;20103;-77
2022/09/03 10:03:29;;;;;;;18.83;17.88;;;21.30;95.70;;;;;;5026974;28;20034;-77
2022/09/03 10:09:07;;;;;;;21.00;19.92;;;21.60;92.90;;;;;;5012767;28;20041;-77
2022/09/03 10:11:38;;;;;;;24.63;23.63;;;21.60;92.70;;;;;;5028352;28;20112;-77
2022/09/03 10:14:12;;;;;;;22.95;21.95;;;21.90;94.40;;;;;;5025539;28;20025;-80
2022/09/03 10:16:44;;;;;;;23.30;22.33;;;22.00;92.30;;;;;;5034570;28;20021;-79
2022/09/03 10:19:18;;;;;;;23.25;22.33;;;21.80;93.70;;;;;;5026980;28;20033;-81
2022/09/03 10:22:08;;;;;;;21.63;20.65;;;21.70;91.20;;;;;;5020387;28;20116;-81
2022/09/03 10:24:48;;;;;;;25.98;24.92;;;21.90;92.30;;;;;;5029160;28;20103;-80
2022/09/03 10:27:17;;;;;;;17.35;16.45;;;22.20;90.60;;;;;;5030119;28;20067;-80
2022/09/03 10:29:44;;;;;;;22.35;21.42;;;22.70;89.20;;;;;;5025888;28;20033;-80
2022/09/03 10:32:48;;;;;;;31.20;29.90;;;22.80;85.20;;;;;;5023109;28;20401;-81
2022/09/03 10:35:19;;;;;;;17.52;16.63;;;23.40;78.20;;;;;;5017795;28;20031;-81
2022/09/03 10:37:56;;;;;;;34.80;33.42;;;23.50;74.50;;;;;;5031342;28;20053;-81
2022/09/03 10:40:29;;;;;;;32.13;30.83;;;23.70;80.80;;;;;;5020172;28;20052;-80
2022/09/03 10:42:58;;;;;;;41.70;40.08;;;23.50;78.50;;;;;;5025711;28;20033;-80
2022/09/03 10:45:34;;;;;;;47.20;45.28;;;24.00;77.10;;;;;;5027655;28;20075;-79
2022/09/03 10:48:13;;;;;;;47.95;46.13;;;24.70;75.60;;;;;;5027117;28;20062;-80
2022/09/03 10:50:51;;;;;;;30.48;29.27;;;25.20;70.60;;;;;;5021615;28;20433;-80
2022/09/03 10:53:48;;;;;;;13.90;13.20;;;25.90;64.00;;;;;;5016988;28;20105;-80
2022/09/03 10:56:21;;;;;;;15.25;14.18;;;24.60;60.30;;;;;;5030506;28;20036;-81
2022/09/03 10:59:09;;;;;;;14.60;13.80;;;25.50;62.30;;;;;;5020068;28;20033;-79
2022/09/03 11:02:09;;;;;;;15.40;14.70;;;26.00;59.80;;;;;;5016556;28;20033;-80
2022/09/03 11:04:43;;;;;;;12.38;11.75;;;27.10;57.90;;;;;;5019308;28;20041;-81
2022/09/03 11:07:12;;;;;;;12.02;11.30;;;26.60;54.00;;;;;;5024166;28;20502;-80
2022/09/03 11:09:51;;;;;;;13.27;12.63;;;27.50;53.40;;;;;;5019418;28;20094;-80
2022/09/03 11:12:35;;;;;;;11.30;10.70;;;26.70;50.20;;;;;;5024331;28;20037;-81
2022/09/03 11:15:06;;;;;;;22.17;20.92;;;25.70;57.10;;;;;;5024040;28;20022;-80
2022/09/03 11:17:39;;;;;;;35.65;34.22;;;24.90;63.70;;;;;;5020422;28;20079;-80
2022/09/03 11:20:21;;;;;;;11.98;11.05;;;25.00;64.50;;;;;;5026258;28;20025;-81
2022/09/03 11:22:51;;;;;;;13.82;13.10;;;25.20;64.10;;;;;;5018261;28;20061;-82
2022/09/03 11:25:22;;;;;;;19.77;18.88;;;23.90;63.80;;;;;;5021545;28;20633;-81
2022/09/03 11:28:18;;;;;;;44.40;42.65;;;23.30;67.50;;;;;;5015971;28;20025;-88
2022/09/03 11:31:02;;;;;;;43.00;41.40;;;23.10;72.00;;;;;;5018372;28;20060;-85
2022/09/03 11:33:28;;;;;;;19.40;18.63;;;22.50;72.20;;;;;;5016893;28;20458;-86
2022/09/03 11:36:00;;;;;;;314.38;295.05;;;22.10;75.80;;;;;;5017303;28;20061;-81
2022/09/03 11:38:33;;;;;;;1833.05;691.40;;;20.60;99.90;;;;;;5022316;28;20029;-81
2022/09/03 11:41:01;;;;;;;1831.60;867.10;;;17.30;99.90;;;;;;5020861;28;20128;-81
2022/09/03 11:43:29;;;;;;;1999.90;999.90;;;16.40;99.90;;;;;;5020761;28;20033;-81
2022/09/03 11:46:11;;;;;;;1999.90;999.90;;;15.90;99.90;;;;;;5030254;28;20068;-81
2022/09/03 11:48:45;;;;;;;1999.90;999.90;;;15.90;99.90;;;;;;5026017;28;20104;-81
2022/09/03 11:51:20;;;;;;;1999.90;999.90;;;16.00;99.90;;;;;;5018069;28;20677;-81
2022/09/03 11:54:05;;;;;;;1999.90;999.90;;;16.20;99.90;;;;;;5020080;28;20030;-80
2022/09/03 11:56:33;;;;;;;1999.90;999.90;;;17.00;99.90;;;;;;5020743;28;20066;-79
2022/09/03 11:59:22;;;;;;;1999.90;999.90;;;17.60;99.90;;;;;;5023030;28;20098;-79
2022/09/03 12:02:00;;;;;;;1999.90;999.90;;;17.80;99.90;;;;;;5024416;28;20042;-77
2022/09/03 12:04:48;;;;;;;1999.90;999.90;;;17.90;99.90;;;;;;5016863;28;20083;-78
2022/09/03 12:07:49;;;;;;;1999.90;999.90;;;18.20;99.90;;;;;;5018144;28;20052;-79
2022/09/03 12:10:20;;;;;;;1999.90;999.90;;;19.00;99.90;;;;;;5011883;28;20080;-78
2022/09/03 12:12:48;;;;;;;1999.90;999.90;;;19.20;99.90;;;;;;5027713;28;20040;-78
2022/09/03 12:15:35;;;;;;;1999.90;999.90;;;19.50;99.90;;;;;;5021649;28;20050;-78
2022/09/03 12:18:23;;;;;;;1773.45;785.63;;;18.90;99.90;;;;;;5023360;28;20037;-80
2022/09/03 12:20:52;;;;;;;1999.90;999.90;;;18.70;99.90;;;;;;5026977;28;20024;-79
2022/09/03 12:23:29;;;;;;;1999.90;999.90;;;18.80;99.90;;;;;;5023057;28;20508;-78
2022/09/03 12:25:56;;;;;;;1999.90;999.90;;;19.30;99.90;;;;;;5026001;28;20040;-79
2022/09/03 12:28:25;;;;;;;1999.90;999.90;;;19.90;99.90;;;;;;5027141;28;20405;-78
2022/09/03 12:30:52;;;;;;;1999.90;999.90;;;20.90;99.90;;;;;;5025623;28;20120;-78
2022/09/03 12:33:22;;;;;;;1999.90;999.90;;;20.70;99.90;;;;;;5022202;28;20084;-78
2022/09/03 12:35:58;;;;;;;1947.03;999.90;;;21.10;99.90;;;;;;5010826;28;20033;-78
2022/09/03 12:38:25;;;;;;;1969.05;989.35;;;21.10;99.90;;;;;;5017473;28;20030;-78
2022/09/03 12:40:53;;;;;;;1999.90;999.90;;;21.00;99.90;;;;;;5019875;28;20053;-79
2022/09/03 12:43:19;;;;;;;1999.90;999.90;;;21.30;99.90;;;;;;5015435;28;20044;-81
2022/09/03 12:45:47;;;;;;;1999.90;999.90;;;20.90;99.90;;;;;;5017155;28;20116;-78
2022/09/03 12:48:18;;;;;;;1999.90;999.90;;;20.80;99.90;;;;;;5026757;28;20025;-79
2022/09/03 12:50:46;;;;;;;1999.90;999.90;;;21.10;99.90;;;;;;5024390;28;20524;-81
2022/09/03 12:53:16;;;;;;;1963.15;999.63;;;21.90;99.90;;;;;;5023325;28;20071;-83